Time,TemperatureF,DewpointF,PressureIn,WindDirection,WindDirectionDegrees,WindSpeedMPH,WindSpeedGustMPH,Humidity,HourlyPrecipIn,Conditions,Clouds,dailyrainin,SoftwareType,DateUTC
2013-02-13 00:01:00,40.5,13.5,30.21,ESE,112,0.0,0.0,33,0.00,,,0.00,WUHU21623XXSP,2013-02-13 08:01:00,
2013-02-13 00:06:00,39.9,13.0,30.21,ESE,112,0.0,5.1,33,0.00,,,0.00,WUHU21623XXSP,2013-02-13 08:06:00,
2013-02-13 00:11:00,39.7,12.8,30.21,East,90,0.0,5.1,33,0.00,,,0.00,WUHU21623XXSP,2013-02-13 08:11:00,
2013-02-13 00:16:00,39.9,13.0,30.21,SE,135,6.0,6.9,33,0.00,,,0.00,WUHU21623XXSP,2013-02-13 08:16:00,
2013-02-13 00:21:00,39.9,13.0,30.21,East,90,0.0,6.9,33,0.00,,,0.00,WUHU21623XXSP,2013-02-13 08:21:00,
2013-02-13 00:26:00,39.4,12.5,30.21,ESE,112,0.0,4.0,33,0.00,,,0.00,WUHU21623XXSP,2013-02-13 08:26:00,
2013-02-13 00:31:00,39.7,12.8,30.21,ESE,112,0.0,7.2,33,0.00,,,0.00,WUHU21623XXSP,2013-02-13 08:31:00,
2013-02-13 00:36:00,39.9,13.0,30.21,ESE,112,2.0,7.2,33,0.00,,,0.00,WUHU21623XXSP,2013-02-13 08:36:00,
2013-02-13 00:41:00,39.9,13.0,30.21,ESE,112,3.1,7.2,33,0.00,,,0.00,WUHU21623XXSP,2013-02-13 08:41:00,
2013-02-13 00:46:00,39.9,13.0,30.21,ESE,112,0.0,7.8,33,0.00,,,0.00,WUHU21623XXSP,2013-02-13 08:46:00,
2013-02-13 00:51:00,39.9,13.0,30.21,ESE,112,7.8,7.8,33,0.00,,,0.00,WUHU21623XXSP,2013-02-13 08:51:00,
2013-02-13 00:56:00,39.9,13.0,30.20,ESE,112,0.0,8.3,33,0.00,,,0.00,WUHU21623XXSP,2013-02-13 08:56:00,
2013-02-13 01:01:00,39.9,13.0,30.20,ESE,112,0.0,8.3,33,0.00,,,0.00,WUHU21623XXSP,2013-02-13 09:01:00,
2013-02-13 01:06:00,40.1,13.2,30.21,ESE,112,4.0,7.4,33,0.00,,,0.00,WUHU21623XXSP,2013-02-13 09:06:00,
2013-02-13 01:11:00,40.3,13.3,30.21,East,90,0.0,7.4,33,0.00,,,0.00,WUHU21623XXSP,2013-02-13 09:11:00,
2013-02-13 01:16:00,40.1,13.2,30.20,East,90,0.0,7.4,33,0.00,,,0.00,WUHU21623XXSP,2013-02-13 09:16:00,
2013-02-13 01:21:00,40.1,13.2,30.20,SE,135,0.0,5.4,33,0.00,,,0.00,WUHU21623XXSP,2013-02-13 09:21:00,
2013-02-13 01:26:00,40.3,13.3,30.20,ESE,112,0.4,9.8,32,0.00,,,0.00,WUHU21623XXSP,2013-02-13 09:26:00,
2013-02-13 01:31:00,40.3,12.7,30.20,ESE,112,0.0,9.8,32,0.00,,,0.00,WUHU21623XXSP,2013-02-13 09:31:00,
2013-02-13 01:36:00,40.3,12.7,30.20,ESE,112,4.9,7.4,32,0.00,,,0.00,WUHU21623XXSP,2013-02-13 09:36:00,
2013-02-13 01:41:00,40.1,12.5,30.20,ESE,112,0.0,7.4,32,0.00,,,0.00,WUHU21623XXSP,2013-02-13 09:41:00,
2013-02-13 01:46:00,40.1,13.2,30.20,ESE,112,4.0,10.5,33,0.00,,,0.00,WUHU21623XXSP,2013-02-13 09:46:00,
2013-02-13 01:51:00,40.3,12.7,30.20,East,90,0.0,10.5,32,0.00,,,0.00,WUHU21623XXSP,2013-02-13 09:51:00,
2013-02-13 01:56:00,40.1,12.5,30.19,East,90,0.0,6.0,32,0.00,,,0.00,WUHU21623XXSP,2013-02-13 09:56:00,
2013-02-13 02:01:00,40.1,12.5,30.19,East,90,0.0,2.5,32,0.00,,,0.00,WUHU21623XXSP,2013-02-13 10:01:00,
2013-02-13 02:06:00,39.9,12.3,30.19,ENE,67,0.0,2.5,33,0.00,,,0.00,WUHU21623XXSP,2013-02-13 10:06:00,
2013-02-13 02:11:00,39.9,13.0,30.19,SE,135,0.0,2.9,33,0.00,,,0.00,WUHU21623XXSP,2013-02-13 10:11:00,
2013-02-13 02:16:00,40.3,12.7,30.19,ESE,112,1.6,6.7,32,0.00,,,0.00,WUHU21623XXSP,2013-02-13 10:16:00,
2013-02-13 02:21:00,40.8,13.2,30.19,SE,135,5.1,6.7,32,0.00,,,0.00,WUHU21623XXSP,2013-02-13 10:21:00,
2013-02-13 02:26:00,41.2,13.5,30.19,ESE,112,3.6,6.5,32,0.00,,,0.00,WUHU21623XXSP,2013-02-13 10:26:00,
2013-02-13 02:31:00,41.4,13.6,30.19,East,90,0.0,6.7,32,0.00,,,0.00,WUHU21623XXSP,2013-02-13 10:31:00,
2013-02-13 02:36:00,41.5,13.7,30.19,ESE,112,0.7,6.7,32,0.00,,,0.00,WUHU21623XXSP,2013-02-13 10:36:00,
2013-02-13 02:41:00,41.7,13.9,30.19,ESE,112,2.2,5.4,32,0.00,,,0.00,WUHU21623XXSP,2013-02-13 10:41:00,
2013-02-13 02:46:00,41.9,14.1,30.19,East,90,4.9,6.9,32,0.00,,,0.00,WUHU21623XXSP,2013-02-13 10:46:00,
2013-02-13 02:51:00,42.1,14.2,30.19,East,90,0.0,6.9,32,0.00,,,0.00,WUHU21623XXSP,2013-02-13 10:51:00,
2013-02-13 02:56:00,42.1,14.2,30.19,East,90,0.0,4.9,32,0.00,,,0.00,WUHU21623XXSP,2013-02-13 10:56:00,
2013-02-13 03:01:00,42.1,14.2,30.19,East,90,0.0,2.0,32,0.00,,,0.00,WUHU21623XXSP,2013-02-13 11:01:00,
2013-02-13 03:06:00,42.1,14.2,30.19,East,90,0.0,1.8,32,0.00,,,0.00,WUHU21623XXSP,2013-02-13 11:06:00,
2013-02-13 03:11:00,42.4,14.5,30.19,East,90,0.0,2.0,32,0.00,,,0.00,WUHU21623XXSP,2013-02-13 11:11:00,
2013-02-13 03:16:00,42.4,14.5,30.19,East,90,0.0,2.0,32,0.00,,,0.00,WUHU21623XXSP,2013-02-13 11:16:00,
2013-02-13 03:21:00,42.6,14.6,30.19,East,90,0.0,1.3,32,0.00,,,0.00,WUHU21623XXSP,2013-02-13 11:21:00,
2013-02-13 03:26:00,42.6,14.6,30.19,East,90,0.0,1.6,32,0.00,,,0.00,WUHU21623XXSP,2013-02-13 11:26:00,
2013-02-13 03:31:00,42.8,14.6,30.18,East,90,0.0,1.6,32,0.00,,,0.00,WUHU21623XXSP,2013-02-13 11:31:00,
2013-02-13 03:36:00,42.6,14.6,30.19,East,90,0.0,0.0,32,0.00,,,0.00,WUHU21623XXSP,2013-02-13 11:36:00,
2013-02-13 03:41:00,42.6,15.3,30.19,ESE,112,0.0,0.0,33,0.00,,,0.00,WUHU21623XXSP,2013-02-13 11:41:00,
2013-02-13 03:46:00,43.0,15.6,30.19,ESE,112,0.0,0.0,33,0.00,,,0.00,WUHU21623XXSP,2013-02-13 11:46:00,
2013-02-13 03:51:00,43.0,15.6,30.18,ESE,112,0.0,0.0,33,0.00,,,0.00,WUHU21623XXSP,2013-02-13 11:51:00,
2013-02-13 03:56:00,43.0,15.6,30.19,ESE,112,0.0,2.5,33,0.00,,,0.00,WUHU21623XXSP,2013-02-13 11:56:00,
2013-02-13 04:01:00,42.8,15.5,30.18,ESE,112,0.0,2.5,33,0.00,,,0.00,WUHU21623XXSP,2013-02-13 12:01:00,
2013-02-13 04:06:00,43.0,15.6,30.19,East,90,0.0,6.3,33,0.00,,,0.00,WUHU21623XXSP,2013-02-13 12:06:00,
2013-02-13 04:11:00,43.0,15.6,30.19,East,90,0.0,6.3,33,0.00,,,0.00,WUHU21623XXSP,2013-02-13 12:11:00,
2013-02-13 04:16:00,43.0,15.6,30.19,East,90,0.0,4.7,33,0.00,,,0.00,WUHU21623XXSP,2013-02-13 12:16:00,
2013-02-13 04:21:00,43.2,15.8,30.18,ESE,112,0.0,4.7,33,0.00,,,0.00,WUHU21623XXSP,2013-02-13 12:21:00,
2013-02-13 04:26:00,43.2,15.8,30.19,ESE,112,0.0,5.4,33,0.00,,,0.00,WUHU21623XXSP,2013-02-13 12:26:00,
2013-02-13 04:31:00,43.2,15.8,30.19,SE,135,0.0,4.9,33,0.00,,,0.00,WUHU21623XXSP,2013-02-13 12:31:00,
2013-02-13 04:36:00,42.6,15.3,30.19,ESE,112,0.0,4.9,33,0.00,,,0.00,WUHU21623XXSP,2013-02-13 12:36:00,
2013-02-13 04:41:00,42.6,15.3,30.19,East,90,0.0,5.1,33,0.00,,,0.00,WUHU21623XXSP,2013-02-13 12:41:00,
2013-02-13 04:46:00,42.8,15.5,30.18,East,90,7.8,7.8,33,0.00,,,0.00,WUHU21623XXSP,2013-02-13 12:46:00,
2013-02-13 04:51:00,43.2,15.8,30.18,ESE,112,0.4,7.8,33,0.00,,,0.00,WUHU21623XXSP,2013-02-13 12:51:00,
2013-02-13 04:56:00,43.2,15.8,30.19,SE,135,0.0,6.3,33,0.00,,,0.00,WUHU21623XXSP,2013-02-13 12:56:00,
2013-02-13 05:01:00,43.0,15.6,30.18,ESE,112,2.0,6.3,33,0.00,,,0.00,WUHU21623XXSP,2013-02-13 13:01:00,
2013-02-13 05:06:00,43.2,15.8,30.19,SE,135,0.0,4.5,33,0.00,,,0.00,WUHU21623XXSP,2013-02-13 13:06:00,
2013-02-13 05:11:00,43.3,15.9,30.18,SE,135,0.0,4.5,33,0.00,,,0.00,WUHU21623XXSP,2013-02-13 13:11:00,
2013-02-13 05:16:00,43.2,15.8,30.19,ESE,112,0.0,6.9,33,0.00,,,0.00,WUHU21623XXSP,2013-02-13 13:16:00,
2013-02-13 05:21:00,43.5,16.1,30.18,ESE,112,0.0,6.9,33,0.00,,,0.00,WUHU21623XXSP,2013-02-13 13:21:00,
2013-02-13 05:26:00,43.3,15.9,30.18,East,90,4.0,6.9,33,0.00,,,0.00,WUHU21623XXSP,2013-02-13 13:26:00,
2013-02-13 05:31:00,43.3,15.9,30.19,ENE,67,4.3,6.9,33,0.00,,,0.00,WUHU21623XXSP,2013-02-13 13:31:00,
2013-02-13 05:36:00,43.3,15.9,30.19,East,90,6.3,7.2,33,0.00,,,0.00,WUHU21623XXSP,2013-02-13 13:36:00,
2013-02-13 05:41:00,43.5,16.1,30.19,East,90,2.0,7.2,33,0.00,,,0.00,WUHU21623XXSP,2013-02-13 13:41:00,
2013-02-13 05:46:00,43.5,16.1,30.19,East,90,2.0,6.9,33,0.00,,,0.00,WUHU21623XXSP,2013-02-13 13:46:00,
2013-02-13 05:51:00,43.5,16.1,30.19,East,90,0.0,7.4,33,0.00,,,0.00,WUHU21623XXSP,2013-02-13 13:51:00,
2013-02-13 05:56:00,43.5,16.1,30.19,East,90,0.0,8.5,33,0.00,,,0.00,WUHU21623XXSP,2013-02-13 13:56:00,
2013-02-13 06:01:00,43.5,16.1,30.19,ESE,112,1.6,8.5,33,0.00,,,0.00,WUHU21623XXSP,2013-02-13 14:01:00,
2013-02-13 06:06:00,43.2,15.8,30.19,East,90,5.4,8.5,33,0.00,,,0.00,WUHU21623XXSP,2013-02-13 14:06:00,
2013-02-13 06:11:00,43.0,15.6,30.19,ESE,112,0.0,8.5,33,0.00,,,0.00,WUHU21623XXSP,2013-02-13 14:11:00,
2013-02-13 06:16:00,43.0,15.6,30.19,East,90,3.4,8.5,33,0.00,,,0.00,WUHU21623XXSP,2013-02-13 14:16:00,
2013-02-13 06:21:00,43.0,15.6,30.20,East,90,1.3,5.4,33,0.00,,,0.00,WUHU21623XXSP,2013-02-13 14:21:00,
2013-02-13 06:26:00,43.0,15.6,30.20,East,90,0.0,5.4,33,0.00,,,0.00,WUHU21623XXSP,2013-02-13 14:26:00,
2013-02-13 06:31:00,43.0,15.6,30.20,East,90,3.8,7.4,33,0.00,,,0.00,WUHU21623XXSP,2013-02-13 14:31:00,
2013-02-13 06:36:00,43.0,15.6,30.20,ESE,112,3.4,8.9,33,0.00,,,0.00,WUHU21623XXSP,2013-02-13 14:36:00,
2013-02-13 06:41:00,42.8,15.5,30.21,East,90,0.0,8.9,33,0.00,,,0.00,WUHU21623XXSP,2013-02-13 14:41:00,
2013-02-13 06:46:00,42.6,15.3,30.21,ESE,112,3.8,7.8,33,0.00,,,0.00,WUHU21623XXSP,2013-02-13 14:46:00,
2013-02-13 06:51:00,42.6,15.3,30.21,East,90,3.4,7.8,33,0.00,,,0.00,WUHU21623XXSP,2013-02-13 14:51:00,
2013-02-13 06:56:00,42.6,15.3,30.21,ENE,67,1.8,6.7,33,0.00,,,0.00,WUHU21623XXSP,2013-02-13 14:56:00,
2013-02-13 07:01:00,42.4,15.2,30.21,ESE,112,3.4,8.3,33,0.00,,,0.00,WUHU21623XXSP,2013-02-13 15:01:00,
2013-02-13 07:06:00,42.4,15.2,30.21,ENE,67,0.0,10.1,33,0.00,,,0.00,WUHU21623XXSP,2013-02-13 15:06:00,
2013-02-13 07:11:00,42.4,15.2,30.21,East,90,5.8,10.1,33,0.00,,,0.00,WUHU21623XXSP,2013-02-13 15:11:00,
2013-02-13 07:16:00,42.6,15.3,30.21,ENE,67,0.0,8.9,33,0.00,,,0.00,WUHU21623XXSP,2013-02-13 15:16:00,
2013-02-13 07:21:00,43.0,15.0,30.21,ESE,112,6.0,9.6,32,0.00,,,0.00,WUHU21623XXSP,2013-02-13 15:21:00,
2013-02-13 07:26:00,43.2,15.1,30.21,East,90,2.9,9.6,32,0.00,,,0.00,WUHU21623XXSP,2013-02-13 15:26:00,
2013-02-13 07:31:00,43.5,14.8,30.22,East,90,5.4,7.4,31,0.00,,,0.00,WUHU21623XXSP,2013-02-13 15:31:00,
2013-02-13 07:36:00,44.1,15.3,30.22,East,90,0.0,7.4,31,0.00,,,0.00,WUHU21623XXSP,2013-02-13 15:36:00,
2013-02-13 07:41:00,44.4,14.9,30.22,East,90,10.5,10.5,30,0.00,,,0.00,WUHU21623XXSP,2013-02-13 15:41:00,
2013-02-13 07:46:00,44.8,15.2,30.22,East,90,2.7,10.5,30,0.00,,,0.00,WUHU21623XXSP,2013-02-13 15:46:00,
2013-02-13 07:51:00,45.3,15.7,30.22,East,90,0.0,7.8,30,0.00,,,0.00,WUHU21623XXSP,2013-02-13 15:51:00,
2013-02-13 07:57:00,46.0,15.5,30.21,East,90,9.6,9.6,29,0.00,,,0.00,WUHU21623XXSP,2013-02-13 15:57:00,
2013-02-13 08:02:00,46.2,15.6,30.21,ESE,112,0.0,9.6,29,0.00,,,0.00,WUHU21623XXSP,2013-02-13 16:02:00,
2013-02-13 08:07:00,47.1,16.4,30.21,ENE,67,0.0,7.6,29,0.00,,,0.00,WUHU21623XXSP,2013-02-13 16:07:00,
2013-02-13 08:12:00,47.7,16.0,30.22,East,90,3.6,8.7,28,0.00,,,0.00,WUHU21623XXSP,2013-02-13 16:12:00,
2013-02-13 08:17:00,48.0,16.3,30.22,ENE,67,3.6,8.7,28,0.00,,,0.00,WUHU21623XXSP,2013-02-13 16:17:00,
2013-02-13 08:22:00,48.4,15.7,30.22,ENE,67,0.0,10.3,27,0.00,,,0.00,WUHU21623XXSP,2013-02-13 16:22:00,
2013-02-13 08:27:00,48.9,16.1,30.22,East,90,7.6,10.3,27,0.00,,,0.00,WUHU21623XXSP,2013-02-13 16:27:00,
2013-02-13 08:32:00,49.1,16.3,30.22,East,90,11.2,11.2,27,0.00,,,0.00,WUHU21623XXSP,2013-02-13 16:32:00,
2013-02-13 08:36:00,49.6,16.7,30.22,East,90,10.1,11.4,27,0.00,,,0.00,WUHU21623XXSP,2013-02-13 16:36:00,
2013-02-13 08:41:00,49.8,16.8,30.22,ESE,112,4.9,11.4,27,0.00,,,0.00,WUHU21623XXSP,2013-02-13 16:41:00,
2013-02-13 08:46:00,50.2,17.1,30.22,ENE,67,0.0,10.1,27,0.00,,,0.00,WUHU21623XXSP,2013-02-13 16:46:00,
2013-02-13 08:52:00,50.7,16.7,30.22,NE,45,7.4,9.6,26,0.00,,,0.00,WUHU21623XXSP,2013-02-13 16:52:00,
2013-02-13 08:56:00,50.9,16.9,30.22,NE,45,8.7,11.9,26,0.00,,,0.00,WUHU21623XXSP,2013-02-13 16:56:00,
2013-02-13 09:01:00,51.1,17.0,30.22,NE,45,0.0,13.0,26,0.00,,,0.00,WUHU21623XXSP,2013-02-13 17:01:00,
2013-02-13 09:06:00,51.4,17.3,30.22,ENE,67,0.0,13.0,26,0.00,,,0.00,WUHU21623XXSP,2013-02-13 17:06:00,
2013-02-13 09:11:00,51.6,17.5,30.22,NE,45,5.6,10.1,26,0.00,,,0.00,WUHU21623XXSP,2013-02-13 17:11:00,
2013-02-13 09:16:00,52.3,18.1,30.22,NE,45,6.9,10.1,26,0.00,,,0.00,WUHU21623XXSP,2013-02-13 17:16:00,
2013-02-13 09:22:00,53.2,18.9,30.22,NNE,22,3.6,8.3,26,0.00,,,0.00,WUHU21623XXSP,2013-02-13 17:22:00,
2013-02-13 09:27:00,53.8,19.3,30.22,NNE,22,4.7,12.8,26,0.00,,,0.00,WUHU21623XXSP,2013-02-13 17:27:00,
2013-02-13 09:32:00,54.3,18.8,30.23,NE,45,3.8,12.8,25,0.00,,,0.00,WUHU21623XXSP,2013-02-13 17:32:00,
2013-02-13 09:37:00,54.1,18.7,30.22,ENE,67,5.8,11.9,25,0.00,,,0.00,WUHU21623XXSP,2013-02-13 17:37:00,
2013-02-13 09:42:00,54.1,18.7,30.22,NE,45,4.3,11.4,25,0.00,,,0.00,WUHU21623XXSP,2013-02-13 17:42:00,
2013-02-13 09:47:00,55.0,19.5,30.22,NNE,22,5.8,11.0,25,0.00,,,0.00,WUHU21623XXSP,2013-02-13 17:47:00,
2013-02-13 09:52:00,55.0,19.5,30.23,North,0,4.3,15.7,25,0.00,,,0.00,WUHU21623XXSP,2013-02-13 17:52:00,
2013-02-13 09:57:00,56.1,20.4,30.23,NNE,22,0.0,16.8,25,0.00,,,0.00,WUHU21623XXSP,2013-02-13 17:57:00,
2013-02-13 10:02:00,55.8,20.1,30.22,NNE,22,2.0,16.8,25,0.00,,,0.00,WUHU21623XXSP,2013-02-13 18:02:00,
2013-02-13 10:07:00,55.6,19.9,30.23,NNE,22,7.2,20.8,25,0.00,,,0.00,WUHU21623XXSP,2013-02-13 18:07:00,
2013-02-13 10:12:00,56.5,20.7,30.23,NNW,337,6.5,20.8,25,0.00,,,0.00,WUHU21623XXSP,2013-02-13 18:12:00,
2013-02-13 10:17:00,56.8,21.0,30.23,NNW,337,13.2,14.5,25,0.00,,,0.00,WUHU21623XXSP,2013-02-13 18:17:00,
2013-02-13 10:22:00,57.2,21.3,30.23,NNE,22,14.1,16.3,25,0.00,,,0.00,WUHU21623XXSP,2013-02-13 18:22:00,
2013-02-13 10:27:00,57.0,21.1,30.23,North,0,3.8,16.3,25,0.00,,,0.00,WUHU21623XXSP,2013-02-13 18:27:00,
2013-02-13 10:32:00,56.5,18.8,30.23,NNE,22,5.8,19.9,23,0.00,,,0.00,WUHU21623XXSP,2013-02-13 18:32:00,
2013-02-13 10:37:00,56.8,20.0,30.23,NE,45,13.2,19.9,24,0.00,,,0.00,WUHU21623XXSP,2013-02-13 18:37:00,
2013-02-13 10:42:00,56.3,20.5,30.22,NE,45,13.6,18.3,25,0.00,,,0.00,WUHU21623XXSP,2013-02-13 18:42:00,
2013-02-13 10:47:00,56.5,20.7,30.23,NNE,22,15.4,18.6,25,0.00,,,0.00,WUHU21623XXSP,2013-02-13 18:47:00,
2013-02-13 10:52:00,57.0,21.1,30.22,North,0,7.8,19.7,25,0.00,,,0.00,WUHU21623XXSP,2013-02-13 18:52:00,
2013-02-13 10:57:00,57.7,21.7,30.22,North,0,5.1,19.7,25,0.00,,,0.00,WUHU21623XXSP,2013-02-13 18:57:00,
2013-02-13 11:02:00,57.9,20.9,30.22,NNW,337,17.2,19.2,24,0.00,,,0.00,WUHU21623XXSP,2013-02-13 19:02:00,
2013-02-13 11:07:00,58.6,21.5,30.21,NW,315,14.3,19.2,24,0.00,,,0.00,WUHU21623XXSP,2013-02-13 19:07:00,
2013-02-13 11:12:00,58.8,21.7,30.21,NNW,337,8.1,19.2,24,0.00,,,0.00,WUHU21623XXSP,2013-02-13 19:12:00,
2013-02-13 11:17:00,58.8,21.7,30.21,North,0,9.6,19.0,24,0.00,,,0.00,WUHU21623XXSP,2013-02-13 19:17:00,
2013-02-13 11:22:00,58.3,21.2,30.21,NE,45,0.0,19.0,24,0.00,,,0.00,WUHU21623XXSP,2013-02-13 19:22:00,
2013-02-13 11:27:00,57.9,20.9,30.21,North,0,5.4,19.0,24,0.00,,,0.00,WUHU21623XXSP,2013-02-13 19:27:00,
2013-02-13 11:32:00,57.7,20.8,30.20,North,0,9.6,18.3,24,0.00,,,0.00,WUHU21623XXSP,2013-02-13 19:32:00,
2013-02-13 11:37:00,57.4,20.5,30.20,NE,45,17.9,18.3,24,0.00,,,0.00,WUHU21623XXSP,2013-02-13 19:37:00,
2013-02-13 11:42:00,57.0,21.1,30.20,North,0,8.9,17.9,25,0.00,,,0.00,WUHU21623XXSP,2013-02-13 19:42:00,
2013-02-13 11:47:00,57.0,21.1,30.20,NNE,22,11.4,24.4,25,0.00,,,0.00,WUHU21623XXSP,2013-02-13 19:47:00,
2013-02-13 11:52:00,57.2,21.3,30.20,NNE,22,5.8,24.4,25,0.00,,,0.00,WUHU21623XXSP,2013-02-13 19:52:00,
2013-02-13 11:57:00,58.1,22.0,30.19,North,0,2.5,18.1,25,0.00,,,0.00,WUHU21623XXSP,2013-02-13 19:57:00,
2013-02-13 12:02:00,59.2,22.0,30.19,NNW,337,11.6,19.2,24,0.00,,,0.00,WUHU21623XXSP,2013-02-13 20:02:00,
2013-02-13 12:07:00,58.8,21.7,30.19,NNW,337,11.6,19.2,24,0.00,,,0.00,WUHU21623XXSP,2013-02-13 20:07:00,
2013-02-13 12:12:00,58.8,21.7,30.19,NNE,22,2.0,17.7,24,0.00,,,0.00,WUHU21623XXSP,2013-02-13 20:12:00,
2013-02-13 12:17:00,59.4,22.2,30.19,North,0,0.0,17.7,24,0.00,,,0.00,WUHU21623XXSP,2013-02-13 20:17:00,
2013-02-13 12:22:00,60.1,22.8,30.19,NNW,337,8.3,14.5,24,0.00,,,0.00,WUHU21623XXSP,2013-02-13 20:22:00,
2013-02-13 12:27:00,60.6,22.3,30.18,NE,45,2.7,16.1,23,0.00,,,0.00,WUHU21623XXSP,2013-02-13 20:27:00,
2013-02-13 12:32:00,59.9,20.7,30.18,NNE,22,7.2,17.9,22,0.00,,,0.00,WUHU21623XXSP,2013-02-13 20:32:00,
2013-02-13 12:37:00,59.5,21.3,30.17,NNE,22,13.0,18.3,23,0.00,,,0.00,WUHU21623XXSP,2013-02-13 20:37:00,
2013-02-13 12:42:00,59.5,21.3,30.17,NE,45,11.2,18.3,23,0.00,,,0.00,WUHU21623XXSP,2013-02-13 20:42:00,
2013-02-13 12:47:00,59.7,21.5,30.17,NNE,22,15.9,16.3,23,0.00,,,0.00,WUHU21623XXSP,2013-02-13 20:47:00,
2013-02-13 12:52:00,59.9,21.6,30.17,NNE,22,14.8,15.9,23,0.00,,,0.00,WUHU21623XXSP,2013-02-13 20:52:00,
2013-02-13 12:57:00,60.1,21.8,30.17,North,0,0.0,15.0,23,0.00,,,0.00,WUHU21623XXSP,2013-02-13 20:57:00,
2013-02-13 13:02:00,60.4,22.1,30.17,NNE,22,9.6,15.4,23,0.00,,,0.00,WUHU21623XXSP,2013-02-13 21:02:00,
2013-02-13 13:07:00,60.4,22.1,30.16,WSW,247,1.6,19.9,23,0.00,,,0.00,WUHU21623XXSP,2013-02-13 21:07:00,
2013-02-13 13:12:00,61.2,22.7,30.16,WSW,247,9.4,19.9,23,0.00,,,0.00,WUHU21623XXSP,2013-02-13 21:12:00,
2013-02-13 13:17:00,61.2,22.7,30.16,WSW,247,11.6,12.5,23,0.00,,,0.00,WUHU21623XXSP,2013-02-13 21:17:00,
2013-02-13 13:22:00,61.2,22.7,30.16,WSW,247,3.6,13.9,23,0.00,,,0.00,WUHU21623XXSP,2013-02-13 21:22:00,
2013-02-13 13:27:00,61.7,23.2,30.16,WSW,247,1.3,13.9,23,0.00,,,0.00,WUHU21623XXSP,2013-02-13 21:27:00,
2013-02-13 13:32:00,61.9,23.3,30.16,WSW,247,9.2,13.2,23,0.00,,,0.00,WUHU21623XXSP,2013-02-13 21:32:00,
2013-02-13 13:37:00,62.2,23.6,30.16,WSW,247,12.5,13.2,23,0.00,,,0.00,WUHU21623XXSP,2013-02-13 21:37:00,
2013-02-13 13:42:00,62.2,23.6,30.15,WSW,247,0.0,12.5,23,0.00,,,0.00,WUHU21623XXSP,2013-02-13 21:42:00,
2013-02-13 13:47:00,62.2,23.6,30.15,WSW,247,4.5,12.3,23,0.00,,,0.00,WUHU21623XXSP,2013-02-13 21:47:00,
2013-02-13 13:52:00,62.4,23.8,30.15,WSW,247,10.7,11.9,23,0.00,,,0.00,WUHU21623XXSP,2013-02-13 21:52:00,
2013-02-13 13:57:00,61.7,23.2,30.15,WSW,247,6.5,13.0,23,0.00,,,0.00,WUHU21623XXSP,2013-02-13 21:57:00,
2013-02-13 14:02:00,61.5,23.0,30.15,WSW,247,3.1,14.5,23,0.00,,,0.00,WUHU21623XXSP,2013-02-13 22:02:00,
2013-02-13 14:07:00,61.5,23.0,30.15,WSW,247,4.3,14.5,23,0.00,,,0.00,WUHU21623XXSP,2013-02-13 22:07:00,
2013-02-13 14:12:00,61.5,23.0,30.15,WSW,247,5.1,10.7,23,0.00,,,0.00,WUHU21623XXSP,2013-02-13 22:12:00,
2013-02-13 14:17:00,61.3,22.9,30.15,WSW,247,1.6,12.3,23,0.00,,,0.00,WUHU21623XXSP,2013-02-13 22:17:00,
2013-02-13 14:22:00,61.2,22.7,30.15,WSW,247,6.3,13.4,23,0.00,,,0.00,WUHU21623XXSP,2013-02-13 22:22:00,
2013-02-13 14:27:00,61.0,22.6,30.14,WSW,247,4.5,14.3,23,0.00,,,0.00,WUHU21623XXSP,2013-02-13 22:27:00,
2013-02-13 14:32:00,61.3,22.9,30.14,WSW,247,6.5,14.3,23,0.00,,,0.00,WUHU21623XXSP,2013-02-13 22:32:00,
2013-02-13 14:37:00,61.0,22.6,30.14,WSW,247,1.3,12.8,23,0.00,,,0.00,WUHU21623XXSP,2013-02-13 22:37:00,
2013-02-13 14:42:00,61.0,22.6,30.14,WSW,247,5.4,14.5,23,0.00,,,0.00,WUHU21623XXSP,2013-02-13 22:42:00,
2013-02-13 14:47:00,60.6,22.3,30.14,WSW,247,1.6,14.5,23,0.00,,,0.00,WUHU21623XXSP,2013-02-13 22:47:00,
2013-02-13 14:52:00,60.6,23.2,30.14,WSW,247,7.6,15.0,24,0.00,,,0.00,WUHU21623XXSP,2013-02-13 22:52:00,
2013-02-13 14:57:00,61.0,22.6,30.14,WSW,247,8.3,15.7,23,0.00,,,0.00,WUHU21623XXSP,2013-02-13 22:57:00,
2013-02-13 15:02:00,61.0,22.6,30.14,WSW,247,5.8,15.7,23,0.00,,,0.00,WUHU21623XXSP,2013-02-13 23:02:00,
2013-02-13 15:07:00,61.0,23.5,30.14,WSW,247,3.6,13.9,24,0.00,,,0.00,WUHU21623XXSP,2013-02-13 23:07:00,
2013-02-13 15:12:00,60.4,23.1,30.14,WSW,247,5.4,16.1,24,0.00,,,0.00,WUHU21623XXSP,2013-02-13 23:12:00,
2013-02-13 15:17:00,60.1,22.8,30.14,WSW,247,2.9,16.1,24,0.00,,,0.00,WUHU21623XXSP,2013-02-13 23:17:00,
2013-02-13 15:22:00,60.1,22.8,30.14,WSW,247,4.7,12.8,24,0.00,,,0.00,WUHU21623XXSP,2013-02-13 23:22:00,
2013-02-13 15:27:00,59.9,22.6,30.14,WSW,247,11.9,13.6,24,0.00,,,0.00,WUHU21623XXSP,2013-02-13 23:27:00,
2013-02-13 15:32:00,59.5,22.3,30.14,WSW,247,5.4,13.6,24,0.00,,,0.00,WUHU21623XXSP,2013-02-13 23:32:00,
2013-02-13 15:37:00,59.5,22.3,30.14,WSW,247,3.4,12.1,24,0.00,,,0.00,WUHU21623XXSP,2013-02-13 23:37:00,
2013-02-13 15:42:00,59.2,22.0,30.14,WSW,247,1.8,12.1,24,0.00,,,0.00,WUHU21623XXSP,2013-02-13 23:42:00,
2013-02-13 15:47:00,59.2,22.0,30.14,WSW,247,1.8,11.9,24,0.00,,,0.00,WUHU21623XXSP,2013-02-13 23:47:00,
2013-02-13 15:52:00,59.4,22.2,30.14,WSW,247,13.2,13.2,24,0.00,,,0.00,WUHU21623XXSP,2013-02-13 23:52:00,
2013-02-13 15:57:00,58.8,21.7,30.14,WSW,247,2.7,14.3,24,0.00,,,0.00,WUHU21623XXSP,2013-02-13 23:57:00,
2013-02-13 16:03:00,58.8,21.7,30.14,WSW,247,6.3,14.3,24,0.00,,,0.00,WUHU21623XXSP,2013-02-14 00:03:00,
2013-02-13 16:08:00,58.6,22.5,30.14,WSW,247,2.5,12.1,25,0.00,,,0.00,WUHU21623XXSP,2013-02-14 00:08:00,
2013-02-13 16:13:00,58.5,22.4,30.14,WSW,247,11.6,14.3,25,0.00,,,0.00,WUHU21623XXSP,2013-02-14 00:13:00,
2013-02-13 16:18:00,58.3,22.2,30.14,WSW,247,8.3,14.3,25,0.00,,,0.00,WUHU21623XXSP,2013-02-14 00:18:00,
2013-02-13 16:23:00,58.1,22.0,30.14,WSW,247,9.6,11.9,25,0.00,,,0.00,WUHU21623XXSP,2013-02-14 00:23:00,
2013-02-13 16:28:00,57.9,21.9,30.14,WSW,247,2.9,10.3,25,0.00,,,0.00,WUHU21623XXSP,2013-02-14 00:28:00,
2013-02-13 16:33:00,57.7,21.7,30.14,WSW,247,11.4,14.3,25,0.00,,,0.00,WUHU21623XXSP,2013-02-14 00:33:00,
2013-02-13 16:38:00,57.4,21.4,30.14,WSW,247,3.1,14.3,25,0.00,,,0.00,WUHU21623XXSP,2013-02-14 00:38:00,
2013-02-13 16:43:00,57.0,21.1,30.14,WSW,247,0.0,10.5,25,0.00,,,0.00,WUHU21623XXSP,2013-02-14 00:43:00,
2013-02-13 16:48:00,56.8,21.0,30.14,WSW,247,0.0,9.8,25,0.00,,,0.00,WUHU21623XXSP,2013-02-14 00:48:00,
2013-02-13 16:53:00,56.5,20.7,30.14,WSW,247,6.5,6.5,25,0.00,,,0.00,WUHU21623XXSP,2013-02-14 00:53:00,
2013-02-13 16:58:00,56.5,21.6,30.14,WSW,247,0.0,6.5,26,0.00,,,0.00,WUHU21623XXSP,2013-02-14 00:58:00,
2013-02-13 17:03:00,55.9,21.1,30.14,WSW,247,2.0,12.3,26,0.00,,,0.00,WUHU21623XXSP,2013-02-14 01:03:00,
2013-02-13 17:08:00,55.9,21.1,30.13,WSW,247,0.0,12.3,26,0.00,,,0.00,WUHU21623XXSP,2013-02-14 01:08:00,
2013-02-13 17:13:00,55.6,20.8,30.14,NE,45,0.0,6.9,26,0.00,,,0.00,WUHU21623XXSP,2013-02-14 01:13:00,
2013-02-13 17:18:00,55.2,20.5,30.14,NE,45,2.7,6.5,26,0.00,,,0.00,WUHU21623XXSP,2013-02-14 01:18:00,
2013-02-13 17:23:00,54.9,20.2,30.14,ENE,67,0.0,8.1,26,0.00,,,0.00,WUHU21623XXSP,2013-02-14 01:23:00,
2013-02-13 17:28:00,54.3,20.7,30.14,ENE,67,0.0,8.1,27,0.00,,,0.00,WUHU21623XXSP,2013-02-14 01:28:00,
2013-02-13 17:33:00,54.3,20.7,30.14,ENE,67,0.0,2.0,27,0.00,,,0.00,WUHU21623XXSP,2013-02-14 01:33:00,
2013-02-13 17:38:00,54.3,19.8,30.14,ENE,67,0.0,0.0,26,0.00,,,0.00,WUHU21623XXSP,2013-02-14 01:38:00,
2013-02-13 17:43:00,54.1,20.6,30.14,ENE,67,0.0,2.5,27,0.00,,,0.00,WUHU21623XXSP,2013-02-14 01:43:00,
2013-02-13 17:48:00,53.8,20.3,30.14,ENE,67,0.0,2.5,27,0.00,,,0.00,WUHU21623XXSP,2013-02-14 01:48:00,
2013-02-13 17:53:00,53.4,20.0,30.14,ENE,67,0.0,1.1,27,0.00,,,0.00,WUHU21623XXSP,2013-02-14 01:53:00,
2013-02-13 17:58:00,53.4,20.0,30.14,ENE,67,0.0,1.1,27,0.00,,,0.00,WUHU21623XXSP,2013-02-14 01:58:00,
2013-02-13 18:03:00,52.9,19.5,30.14,ENE,67,0.0,2.2,27,0.00,,,0.00,WUHU21623XXSP,2013-02-14 02:03:00,
2013-02-13 18:08:00,52.9,19.5,30.14,ENE,67,0.0,2.2,27,0.00,,,0.00,WUHU21623XXSP,2013-02-14 02:08:00,
2013-02-13 18:13:00,52.7,19.3,30.14,ENE,67,0.0,1.6,27,0.00,,,0.00,WUHU21623XXSP,2013-02-14 02:13:00,
2013-02-13 18:18:00,52.7,19.3,30.15,ENE,67,0.0,1.1,27,0.00,,,0.00,WUHU21623XXSP,2013-02-14 02:18:00,
2013-02-13 18:23:00,52.5,20.1,30.14,ENE,67,0.0,1.1,28,0.00,,,0.00,WUHU21623XXSP,2013-02-14 02:23:00,
2013-02-13 18:28:00,52.3,20.0,30.14,ENE,67,0.0,2.0,28,0.00,,,0.00,WUHU21623XXSP,2013-02-14 02:28:00,
2013-02-13 18:33:00,52.2,19.8,30.14,East,90,0.0,2.0,28,0.00,,,0.00,WUHU21623XXSP,2013-02-14 02:33:00,
2013-02-13 18:38:00,51.8,19.5,30.14,East,90,0.0,2.9,28,0.00,,,0.00,WUHU21623XXSP,2013-02-14 02:38:00,
2013-02-13 18:43:00,51.6,19.3,30.14,East,90,0.0,2.9,28,0.00,,,0.00,WUHU21623XXSP,2013-02-14 02:43:00,
2013-02-13 18:48:00,51.4,19.2,30.15,East,90,0.0,1.8,28,0.00,,,0.00,WUHU21623XXSP,2013-02-14 02:48:00,
2013-02-13 18:53:00,51.4,19.2,30.15,East,90,0.0,1.8,28,0.00,,,0.00,WUHU21623XXSP,2013-02-14 02:53:00,
2013-02-13 18:58:00,51.6,19.3,30.15,East,90,0.0,0.0,28,0.00,,,0.00,WUHU21623XXSP,2013-02-14 02:58:00,
2013-02-13 19:03:00,51.4,19.2,30.15,East,90,0.0,0.0,28,0.00,,,0.00,WUHU21623XXSP,2013-02-14 03:03:00,
2013-02-13 19:08:00,51.1,19.8,30.15,East,90,0.0,0.0,29,0.00,,,0.00,WUHU21623XXSP,2013-02-14 03:08:00,
2013-02-13 19:13:00,50.9,19.6,30.16,East,90,0.0,0.0,29,0.00,,,0.00,WUHU21623XXSP,2013-02-14 03:13:00,
2013-02-13 19:18:00,50.7,19.5,30.15,ESE,112,0.0,0.7,29,0.00,,,0.00,WUHU21623XXSP,2013-02-14 03:18:00,
2013-02-13 19:24:00,50.9,19.6,30.15,ESE,112,0.0,1.6,29,0.00,,,0.00,WUHU21623XXSP,2013-02-14 03:24:00,
2013-02-13 19:28:00,50.7,19.5,30.15,ESE,112,0.0,1.6,29,0.00,,,0.00,WUHU21623XXSP,2013-02-14 03:28:00,
2013-02-13 19:33:00,50.7,19.5,30.15,ESE,112,0.0,0.0,29,0.00,,,0.00,WUHU21623XXSP,2013-02-14 03:33:00,
2013-02-13 19:39:00,50.7,19.5,30.15,ESE,112,0.0,0.0,29,0.00,,,0.00,WUHU21623XXSP,2013-02-14 03:39:00,
2013-02-13 19:44:00,50.7,19.5,30.16,ESE,112,0.0,0.0,29,0.00,,,0.00,WUHU21623XXSP,2013-02-14 03:44:00,
2013-02-13 19:49:00,50.7,19.5,30.15,ESE,112,0.0,0.0,29,0.00,,,0.00,WUHU21623XXSP,2013-02-14 03:49:00,
2013-02-13 19:54:00,50.5,19.3,30.15,ESE,112,0.0,0.0,29,0.00,,,0.00,WUHU21623XXSP,2013-02-14 03:54:00,
2013-02-13 19:59:00,50.5,19.3,30.15,ESE,112,0.0,0.0,29,0.00,,,0.00,WUHU21623XXSP,2013-02-14 03:59:00,
2013-02-13 20:04:00,50.2,19.0,30.15,ESE,112,0.0,1.8,29,0.00,,,0.00,WUHU21623XXSP,2013-02-14 04:04:00,
2013-02-13 20:09:00,49.8,19.6,30.15,ESE,112,0.0,1.8,30,0.00,,,0.00,WUHU21623XXSP,2013-02-14 04:09:00,
2013-02-13 20:14:00,49.8,19.6,30.15,SE,135,0.0,0.0,30,0.00,,,0.00,WUHU21623XXSP,2013-02-14 04:14:00,
2013-02-13 20:19:00,49.8,19.6,30.15,SE,135,0.0,0.0,30,0.00,,,0.00,WUHU21623XXSP,2013-02-14 04:19:00,
2013-02-13 20:24:00,49.8,19.6,30.15,SE,135,0.0,0.9,30,0.00,,,0.00,WUHU21623XXSP,2013-02-14 04:24:00,
2013-02-13 20:29:00,49.8,19.6,30.16,SE,135,0.0,0.9,30,0.00,,,0.00,WUHU21623XXSP,2013-02-14 04:29:00,
2013-02-13 20:34:00,49.6,19.5,30.16,SE,135,0.0,0.0,30,0.00,,,0.00,WUHU21623XXSP,2013-02-14 04:34:00,
2013-02-13 20:39:00,49.3,19.2,30.16,SE,135,0.0,0.0,30,0.00,,,0.00,WUHU21623XXSP,2013-02-14 04:39:00,
2013-02-13 20:44:00,49.3,19.2,30.16,SE,135,0.0,0.0,30,0.00,,,0.00,WUHU21623XXSP,2013-02-14 04:44:00,
2013-02-13 20:49:00,49.1,19.0,30.16,SE,135,0.0,0.0,30,0.00,,,0.00,WUHU21623XXSP,2013-02-14 04:49:00,
2013-02-13 20:54:00,49.1,19.0,30.16,SE,135,0.0,0.0,30,0.00,,,0.00,WUHU21623XXSP,2013-02-14 04:54:00,
2013-02-13 20:59:00,49.1,19.0,30.16,SE,135,0.0,0.0,30,0.00,,,0.00,WUHU21623XXSP,2013-02-14 04:59:00,
2013-02-13 21:00:00,49.3,19.2,30.16,SE,135,0.0,0.0,30,0.00,,,0.00,WUHU21623XXSP,2013-02-14 05:00:00,
2013-02-13 21:01:00,49.1,19.0,30.16,SE,135,0.0,0.0,30,0.00,,,0.00,WUHU21623XXSP,2013-02-14 05:01:00,
2013-02-13 21:06:00,48.9,18.9,30.16,SE,135,0.0,0.0,30,0.00,,,0.00,WUHU21623XXSP,2013-02-14 05:06:00,
2013-02-13 21:11:00,48.7,19.4,30.16,SE,135,0.0,0.0,31,0.00,,,0.00,WUHU21623XXSP,2013-02-14 05:11:00,
2013-02-13 21:16:00,48.7,19.4,30.16,ESE,112,2.2,2.2,31,0.00,,,0.00,WUHU21623XXSP,2013-02-14 05:16:00,
2013-02-13 21:21:00,48.7,19.4,30.16,ESE,112,0.0,2.2,31,0.00,,,0.00,WUHU21623XXSP,2013-02-14 05:21:00,
2013-02-13 21:26:00,49.1,19.7,30.16,ESE,112,0.0,2.0,31,0.00,,,0.00,WUHU21623XXSP,2013-02-14 05:26:00,
2013-02-13 21:31:00,48.9,19.6,30.16,ESE,112,1.3,2.2,31,0.00,,,0.00,WUHU21623XXSP,2013-02-14 05:31:00,
2013-02-13 21:36:00,48.7,19.4,30.16,SE,135,0.0,2.2,31,0.00,,,0.00,WUHU21623XXSP,2013-02-14 05:36:00,
2013-02-13 21:41:00,48.9,19.6,30.16,ESE,112,0.0,2.5,31,0.00,,,0.00,WUHU21623XXSP,2013-02-14 05:41:00,
2013-02-13 21:46:00,48.9,19.6,30.16,ESE,112,0.0,5.4,31,0.00,,,0.00,WUHU21623XXSP,2013-02-14 05:46:00,
2013-02-13 21:51:00,48.9,19.6,30.16,ESE,112,0.0,5.4,31,0.00,,,0.00,WUHU21623XXSP,2013-02-14 05:51:00,
2013-02-13 21:56:00,48.9,19.6,30.16,ESE,112,0.0,3.4,31,0.00,,,0.00,WUHU21623XXSP,2013-02-14 05:56:00,
2013-02-13 22:01:00,48.7,19.4,30.16,ESE,112,0.0,3.4,31,0.00,,,0.00,WUHU21623XXSP,2013-02-14 06:01:00,
2013-02-13 22:06:00,48.9,19.6,30.16,ESE,112,0.0,2.7,31,0.00,,,0.00,WUHU21623XXSP,2013-02-14 06:06:00,
2013-02-13 22:11:00,48.9,19.6,30.16,ESE,112,0.0,1.3,31,0.00,,,0.00,WUHU21623XXSP,2013-02-14 06:11:00,
2013-02-13 22:16:00,48.9,19.6,30.16,ESE,112,0.0,1.3,31,0.00,,,0.00,WUHU21623XXSP,2013-02-14 06:16:00,
2013-02-13 22:21:00,48.9,19.6,30.16,ESE,112,0.0,0.0,31,0.00,,,0.00,WUHU21623XXSP,2013-02-14 06:21:00,
2013-02-13 22:26:00,48.7,19.4,30.16,ESE,112,4.0,4.0,31,0.00,,,0.00,WUHU21623XXSP,2013-02-14 06:26:00,
2013-02-13 22:31:00,48.7,19.4,30.16,ESE,112,0.0,4.0,31,0.00,,,0.00,WUHU21623XXSP,2013-02-14 06:31:00,
2013-02-13 22:36:00,48.6,19.3,30.16,ESE,112,0.0,4.0,31,0.00,,,0.00,WUHU21623XXSP,2013-02-14 06:36:00,
2013-02-13 22:41:00,48.7,19.4,30.17,ESE,112,0.0,2.7,31,0.00,,,0.00,WUHU21623XXSP,2013-02-14 06:41:00,
2013-02-13 22:46:00,48.7,19.4,30.17,ESE,112,0.0,0.0,31,0.00,,,0.00,WUHU21623XXSP,2013-02-14 06:46:00,
2013-02-13 22:51:00,49.1,19.7,30.17,ESE,112,0.0,3.1,31,0.00,,,0.00,WUHU21623XXSP,2013-02-14 06:51:00,
2013-02-13 22:56:00,49.1,19.7,30.16,ESE,112,0.0,3.1,31,0.00,,,0.00,WUHU21623XXSP,2013-02-14 06:56:00,
2013-02-13 23:01:00,48.9,19.6,30.16,ESE,112,0.0,0.0,31,0.00,,,0.00,WUHU21623XXSP,2013-02-14 07:01:00,
2013-02-13 23:06:00,48.6,19.9,30.16,ESE,112,0.0,0.0,32,0.00,,,0.00,WUHU21623XXSP,2013-02-14 07:06:00,
2013-02-13 23:11:00,48.4,19.8,30.16,ESE,112,0.0,0.0,32,0.00,,,0.00,WUHU21623XXSP,2013-02-14 07:11:00,
2013-02-13 23:16:00,48.2,19.7,30.16,ESE,112,0.0,0.0,32,0.00,,,0.00,WUHU21623XXSP,2013-02-14 07:16:00,
2013-02-13 23:21:00,48.0,20.2,30.16,ESE,112,0.0,1.6,33,0.00,,,0.00,WUHU21623XXSP,2013-02-14 07:21:00,
2013-02-13 23:26:00,47.7,19.2,30.16,ESE,112,0.0,1.6,32,0.00,,,0.00,WUHU21623XXSP,2013-02-14 07:26:00,
2013-02-13 23:31:00,47.3,19.5,30.16,ESE,112,1.6,2.2,33,0.00,,,0.00,WUHU21623XXSP,2013-02-14 07:31:00,
2013-02-13 23:36:00,47.5,19.7,30.16,ESE,112,0.0,2.2,33,0.00,,,0.00,WUHU21623XXSP,2013-02-14 07:36:00,
2013-02-13 23:41:00,47.7,19.8,30.16,ESE,112,0.0,0.0,33,0.00,,,0.00,WUHU21623XXSP,2013-02-14 07:41:00,
2013-02-13 23:46:00,47.8,20.0,30.16,NNE,22,0.0,1.3,33,0.00,,,0.00,WUHU21623XXSP,2013-02-14 07:46:00,
2013-02-13 23:51:00,48.2,20.3,30.16,NNE,22,0.0,1.3,33,0.00,,,0.00,WUHU21623XXSP,2013-02-14 07:51:00,
2013-02-13 23:56:00,48.6,20.6,30.16,NNE,22,0.0,13.0,33,0.00,,,0.00,WUHU21623XXSP,2013-02-14 07:56:00,